sensor_id;sensor_type;location;lat;lon;timestamp;pressure;altitude;pressure_sealevel;temperature;humidity
71565;BME280;59397;50.952;14.502;2022-07-03T00:11:02;977.01;;;9.40;100.00
71565;BME280;59397;50.952;14.502;2022-07-03T00:30:31;976.84;;;8.84;100.00
71565;BME280;59397;50.952;14.502;2022-07-03T00:50:05;976.78;;;8.83;100.00
71565;BME280;59397;50.952;14.502;2022-07-03T01:09:34;976.72;;;8.96;100.00
71565;BME280;59397;50.952;14.502;2022-07-03T01:29:02;976.56;;;8.45;100.00
71565;BME280;59397;50.952;14.502;2022-07-03T01:48:32;976.47;;;8.81;100.00
71565;BME280;59397;50.952;14.502;2022-07-03T02:08:15;976.47;;;8.40;100.00
71565;BME280;59397;50.952;14.502;2022-07-03T02:27:38;976.29;;;8.66;99.12
71565;BME280;59397;50.952;14.502;2022-07-03T02:47:03;976.21;;;8.02;100.00
71565;BME280;59397;50.952;14.502;2022-07-03T03:06:32;976.31;;;7.88;100.00
71565;BME280;59397;50.952;14.502;2022-07-03T03:26:04;976.25;;;8.10;100.00
71565;BME280;59397;50.952;14.502;2022-07-03T03:45:36;976.30;;;8.85;100.00
71565;BME280;59397;50.952;14.502;2022-07-03T04:04:56;976.29;;;9.23;100.00
71565;BME280;59397;50.952;14.502;2022-07-03T04:24:30;976.11;;;10.38;100.00
71565;BME280;59397;50.952;14.502;2022-07-03T04:44:07;976.15;;;11.55;100.00
71565;BME280;59397;50.952;14.502;2022-07-03T05:03:46;976.12;;;13.79;95.71
71565;BME280;59397;50.952;14.502;2022-07-03T05:23:26;975.95;;;16.41;84.53
71565;BME280;59397;50.952;14.502;2022-07-03T05:43:03;975.95;;;17.43;78.19
71565;BME280;59397;50.952;14.502;2022-07-03T06:02:37;975.91;;;17.76;75.56
71565;BME280;59397;50.952;14.502;2022-07-03T06:22:10;975.85;;;18.36;72.83
71565;BME280;59397;50.952;14.502;2022-07-03T06:41:42;975.81;;;18.74;69.83
71565;BME280;59397;50.952;14.502;2022-07-03T07:01:13;975.71;;;18.81;68.33
71565;BME280;59397;50.952;14.502;2022-07-03T07:20:45;975.46;;;19.30;69.16
71565;BME280;59397;50.952;14.502;2022-07-03T07:40:17;975.43;;;19.26;66.56
71565;BME280;59397;50.952;14.502;2022-07-03T07:59:51;975.34;;;19.85;66.39
71565;BME280;59397;50.952;14.502;2022-07-03T08:19:24;975.39;;;20.27;64.56
71565;BME280;59397;50.952;14.502;2022-07-03T08:38:56;975.10;;;20.77;65.64
71565;BME280;59397;50.952;14.502;2022-07-03T08:58:31;975.18;;;21.31;62.69
71565;BME280;59397;50.952;14.502;2022-07-03T09:17:59;975.01;;;21.64;59.42
71565;BME280;59397;50.952;14.502;2022-07-03T09:37:26;975.03;;;21.01;63.72
71565;BME280;59397;50.952;14.502;2022-07-03T09:57:00;975.01;;;21.10;57.74
71565;BME280;59397;50.952;14.502;2022-07-03T10:16:37;974.92;;;21.13;58.55
71565;BME280;59397;50.952;14.502;2022-07-03T10:36:13;974.64;;;22.64;57.99
71565;BME280;59397;50.952;14.502;2022-07-03T11:34:56;974.29;;;23.27;55.05
71565;BME280;59397;50.952;14.502;2022-07-03T12:13:53;973.95;;;23.71;50.46
71565;BME280;59397;50.952;14.502;2022-07-03T12:33:27;973.82;;;22.67;53.86
71565;BME280;59397;50.952;14.502;2022-07-03T12:53:05;973.62;;;24.64;51.38
71565;BME280;59397;50.952;14.502;2022-07-03T13:32:07;973.38;;;23.66;52.20
71565;BME280;59397;50.952;14.502;2022-07-03T13:51:41;973.31;;;24.01;50.92
71565;BME280;59397;50.952;14.502;2022-07-03T14:11:14;973.19;;;23.54;53.23
71565;BME280;59397;50.952;14.502;2022-07-03T14:30:48;973.13;;;23.82;53.25
71565;BME280;59397;50.952;14.502;2022-07-03T14:50:21;972.92;;;24.42;51.87
71565;BME280;59397;50.952;14.502;2022-07-03T15:09:54;972.81;;;24.61;50.88
71565;BME280;59397;50.952;14.502;2022-07-03T15:29:26;972.75;;;24.59;51.47
71565;BME280;59397;50.952;14.502;2022-07-03T15:49:04;972.63;;;23.91;52.65
71565;BME280;59397;50.952;14.502;2022-07-03T16:08:29;972.49;;;24.38;52.62
71565;BME280;59397;50.952;14.502;2022-07-03T16:27:58;972.43;;;24.11;50.75
71565;BME280;59397;50.952;14.502;2022-07-03T16:47:28;972.36;;;23.90;53.96
71565;BME280;59397;50.952;14.502;2022-07-03T17:06:57;972.26;;;23.79;52.22
71565;BME280;59397;50.952;14.502;2022-07-03T17:26:29;972.12;;;23.56;56.02
71565;BME280;59397;50.952;14.502;2022-07-03T17:45:58;972.03;;;23.11;60.05
71565;BME280;59397;50.952;14.502;2022-07-03T18:05:28;972.02;;;22.67;60.55
71565;BME280;59397;50.952;14.502;2022-07-03T18:24:57;972.04;;;22.21;64.54
71565;BME280;59397;50.952;14.502;2022-07-03T18:44:27;972.04;;;21.65;62.67
71565;BME280;59397;50.952;14.502;2022-07-03T19:03:57;972.00;;;20.04;75.64
71565;BME280;59397;50.952;14.502;2022-07-03T19:23:23;972.14;;;19.18;82.57
71565;BME280;59397;50.952;14.502;2022-07-03T19:42:50;972.14;;;18.13;89.32
71565;BME280;59397;50.952;14.502;2022-07-03T20:02:20;972.25;;;17.51;91.38
71565;BME280;59397;50.952;14.502;2022-07-03T20:21:49;972.24;;;16.95;92.98
71565;BME280;59397;50.952;14.502;2022-07-03T20:41:18;972.28;;;16.53;95.05
71565;BME280;59397;50.952;14.502;2022-07-03T21:00:48;972.33;;;16.02;99.43
71565;BME280;59397;50.952;14.502;2022-07-03T21:20:19;972.11;;;15.62;99.14
71565;BME280;59397;50.952;14.502;2022-07-03T21:39:48;972.23;;;15.18;100.00
71565;BME280;59397;50.952;14.502;2022-07-03T21:59:18;972.26;;;14.79;100.00
71565;BME280;59397;50.952;14.502;2022-07-03T22:18:50;972.15;;;14.61;100.00
71565;BME280;59397;50.952;14.502;2022-07-03T22:38:21;972.01;;;14.35;100.00
71565;BME280;59397;50.952;14.502;2022-07-03T22:57:52;971.85;;;14.11;100.00
71565;BME280;59397;50.952;14.502;2022-07-03T23:17:24;971.80;;;13.88;100.00
71565;BME280;59397;50.952;14.502;2022-07-03T23:36:53;971.86;;;13.54;100.00
71565;BME280;59397;50.952;14.502;2022-07-03T23:56:25;971.75;;;13.35;100.00
